sensor_id;sensor_type;location;lat;lon;timestamp;temperature;humidity
23120;DHT22;11729;50.836;4.330;2024-02-23T00:00:04;7.40;99.90
23120;DHT22;11729;50.836;4.330;2024-02-23T00:02:32;7.30;99.90
23120;DHT22;11729;50.836;4.330;2024-02-23T00:04:57;7.20;99.90
23120;DHT22;11729;50.836;4.330;2024-02-23T00:07:23;7.20;99.90
23120;DHT22;11729;50.836;4.330;2024-02-23T00:09:49;7.30;99.90
23120;DHT22;11729;50.836;4.330;2024-02-23T00:12:16;7.30;99.90
23120;DHT22;11729;50.836;4.330;2024-02-23T00:14:41;7.30;99.90
23120;DHT22;11729;50.836;4.330;2024-02-23T00:17:07;7.30;99.90
23120;DHT22;11729;50.836;4.330;2024-02-23T00:19:33;7.20;99.90
23120;DHT22;11729;50.836;4.330;2024-02-23T00:21:58;7.00;99.90
23120;DHT22;11729;50.836;4.330;2024-02-23T00:24:25;7.10;99.90
23120;DHT22;11729;50.836;4.330;2024-02-23T00:26:51;7.20;99.90
23120;DHT22;11729;50.836;4.330;2024-02-23T00:29:17;7.00;99.90
23120;DHT22;11729;50.836;4.330;2024-02-23T00:31:43;6.90;99.90
23120;DHT22;11729;50.836;4.330;2024-02-23T00:34:12;6.90;99.90
23120;DHT22;11729;50.836;4.330;2024-02-23T00:36:42;6.90;99.90
23120;DHT22;11729;50.836;4.330;2024-02-23T00:39:10;6.90;99.90
23120;DHT22;11729;50.836;4.330;2024-02-23T00:41:36;6.80;99.90
23120;DHT22;11729;50.836;4.330;2024-02-23T00:44:03;6.80;99.90
23120;DHT22;11729;50.836;4.330;2024-02-23T00:46:29;6.70;99.90
23120;DHT22;11729;50.836;4.330;2024-02-23T00:48:54;6.50;99.90
23120;DHT22;11729;50.836;4.330;2024-02-23T00:51:20;6.50;99.90
23120;DHT22;11729;50.836;4.330;2024-02-23T00:53:46;6.50;99.90
23120;DHT22;11729;50.836;4.330;2024-02-23T00:56:12;6.50;99.90
23120;DHT22;11729;50.836;4.330;2024-02-23T00:58:38;6.40;99.90
23120;DHT22;11729;50.836;4.330;2024-02-23T01:01:05;6.50;99.90
23120;DHT22;11729;50.836;4.330;2024-02-23T01:03:31;6.40;99.90
23120;DHT22;11729;50.836;4.330;2024-02-23T01:05:56;6.40;99.90
23120;DHT22;11729;50.836;4.330;2024-02-23T01:08:22;6.40;99.90
23120;DHT22;11729;50.836;4.330;2024-02-23T01:10:47;6.30;99.90
23120;DHT22;11729;50.836;4.330;2024-02-23T01:13:14;6.20;99.90
23120;DHT22;11729;50.836;4.330;2024-02-23T01:15:42;6.20;99.90
23120;DHT22;11729;50.836;4.330;2024-02-23T01:18:09;6.30;99.90
23120;DHT22;11729;50.836;4.330;2024-02-23T01:20:34;6.20;99.90
23120;DHT22;11729;50.836;4.330;2024-02-23T01:23:00;6.20;99.90
23120;DHT22;11729;50.836;4.330;2024-02-23T01:25:26;6.20;99.90
23120;DHT22;11729;50.836;4.330;2024-02-23T01:27:52;6.20;99.90
23120;DHT22;11729;50.836;4.330;2024-02-23T01:30:18;6.20;99.90
23120;DHT22;11729;50.836;4.330;2024-02-23T01:32:46;6.30;99.90
23120;DHT22;11729;50.836;4.330;2024-02-23T01:35:12;6.40;99.90
23120;DHT22;11729;50.836;4.330;2024-02-23T01:37:37;6.40;99.90
23120;DHT22;11729;50.836;4.330;2024-02-23T01:40:03;6.30;99.90
23120;DHT22;11729;50.836;4.330;2024-02-23T01:42:29;6.20;99.90
23120;DHT22;11729;50.836;4.330;2024-02-23T01:44:55;6.20;99.90
23120;DHT22;11729;50.836;4.330;2024-02-23T01:47:24;6.30;99.90
23120;DHT22;11729;50.836;4.330;2024-02-23T01:49:51;6.30;99.90
23120;DHT22;11729;50.836;4.330;2024-02-23T01:52:17;6.40;99.90
23120;DHT22;11729;50.836;4.330;2024-02-23T01:54:44;6.50;99.90
23120;DHT22;11729;50.836;4.330;2024-02-23T01:57:10;6.50;99.90
23120;DHT22;11729;50.836;4.330;2024-02-23T01:59:38;6.60;99.90
23120;DHT22;11729;50.836;4.330;2024-02-23T02:02:04;6.60;99.90
23120;DHT22;11729;50.836;4.330;2024-02-23T02:04:30;6.70;99.90
23120;DHT22;11729;50.836;4.330;2024-02-23T02:06:57;6.70;99.90
23120;DHT22;11729;50.836;4.330;2024-02-23T02:09:23;6.80;99.90
23120;DHT22;11729;50.836;4.330;2024-02-23T02:11:49;6.90;99.90
23120;DHT22;11729;50.836;4.330;2024-02-23T02:14:16;6.80;99.90
23120;DHT22;11729;50.836;4.330;2024-02-23T02:16:42;6.90;99.90
23120;DHT22;11729;50.836;4.330;2024-02-23T02:19:09;6.90;99.90
23120;DHT22;11729;50.836;4.330;2024-02-23T02:21:35;7.00;99.90
23120;DHT22;11729;50.836;4.330;2024-02-23T02:24:01;7.00;99.90
23120;DHT22;11729;50.836;4.330;2024-02-23T02:26:28;7.00;99.90
23120;DHT22;11729;50.836;4.330;2024-02-23T02:28:54;7.10;99.90
23120;DHT22;11729;50.836;4.330;2024-02-23T02:31:20;7.00;99.90
23120;DHT22;11729;50.836;4.330;2024-02-23T02:33:45;7.10;99.90
23120;DHT22;11729;50.836;4.330;2024-02-23T02:36:11;7.10;99.90
23120;DHT22;11729;50.836;4.330;2024-02-23T02:38:37;7.10;99.90
23120;DHT22;11729;50.836;4.330;2024-02-23T02:41:03;7.10;99.90
23120;DHT22;11729;50.836;4.330;2024-02-23T02:43:30;7.20;99.90
23120;DHT22;11729;50.836;4.330;2024-02-23T02:45:56;7.20;99.90
23120;DHT22;11729;50.836;4.330;2024-02-23T02:48:23;7.30;99.90
23120;DHT22;11729;50.836;4.330;2024-02-23T02:50:48;7.30;99.90
23120;DHT22;11729;50.836;4.330;2024-02-23T02:53:15;7.40;99.90
23120;DHT22;11729;50.836;4.330;2024-02-23T02:55:42;7.40;99.90
23120;DHT22;11729;50.836;4.330;2024-02-23T02:58:08;7.40;99.90
23120;DHT22;11729;50.836;4.330;2024-02-23T03:00:34;7.40;99.90
23120;DHT22;11729;50.836;4.330;2024-02-23T03:02:59;7.30;99.90
23120;DHT22;11729;50.836;4.330;2024-02-23T03:05:25;7.30;99.90
23120;DHT22;11729;50.836;4.330;2024-02-23T03:07:50;7.20;99.90
23120;DHT22;11729;50.836;4.330;2024-02-23T03:10:16;7.30;99.90
23120;DHT22;11729;50.836;4.330;2024-02-23T03:12:42;7.40;99.90
23120;DHT22;11729;50.836;4.330;2024-02-23T03:15:08;7.30;99.90
23120;DHT22;11729;50.836;4.330;2024-02-23T03:17:35;7.30;99.90
23120;DHT22;11729;50.836;4.330;2024-02-23T03:20:01;7.20;99.90
23120;DHT22;11729;50.836;4.330;2024-02-23T03:22:30;7.30;99.90
23120;DHT22;11729;50.836;4.330;2024-02-23T03:24:56;7.20;99.90
23120;DHT22;11729;50.836;4.330;2024-02-23T03:27:27;7.20;99.90
23120;DHT22;11729;50.836;4.330;2024-02-23T03:29:53;7.10;99.90
23120;DHT22;11729;50.836;4.330;2024-02-23T03:32:19;6.90;99.90
23120;DHT22;11729;50.836;4.330;2024-02-23T03:34:45;6.80;99.90
23120;DHT22;11729;50.836;4.330;2024-02-23T03:37:10;6.80;99.90
23120;DHT22;11729;50.836;4.330;2024-02-23T03:39:36;6.80;99.90
23120;DHT22;11729;50.836;4.330;2024-02-23T03:42:03;6.80;99.90
23120;DHT22;11729;50.836;4.330;2024-02-23T03:44:29;6.90;99.90
23120;DHT22;11729;50.836;4.330;2024-02-23T03:46:56;6.80;99.90
23120;DHT22;11729;50.836;4.330;2024-02-23T03:49:22;6.90;99.90
23120;DHT22;11729;50.836;4.330;2024-02-23T03:51:47;6.90;99.90
23120;DHT22;11729;50.836;4.330;2024-02-23T03:54:13;7.00;99.90
23120;DHT22;11729;50.836;4.330;2024-02-23T03:56:43;7.00;99.90
23120;DHT22;11729;50.836;4.330;2024-02-23T03:59:09;6.90;99.90
23120;DHT22;11729;50.836;4.330;2024-02-23T04:01:39;6.90;99.90
23120;DHT22;11729;50.836;4.330;2024-02-23T04:04:05;7.00;99.90
23120;DHT22;11729;50.836;4.330;2024-02-23T04:06:31;7.00;99.90
23120;DHT22;11729;50.836;4.330;2024-02-23T04:08:57;7.00;99.90
23120;DHT22;11729;50.836;4.330;2024-02-23T04:11:23;7.10;99.90
23120;DHT22;11729;50.836;4.330;2024-02-23T04:13:49;7.10;99.90
23120;DHT22;11729;50.836;4.330;2024-02-23T04:16:14;7.00;99.90
23120;DHT22;11729;50.836;4.330;2024-02-23T04:18:40;7.10;99.90
23120;DHT22;11729;50.836;4.330;2024-02-23T04:21:05;7.10;99.90
23120;DHT22;11729;50.836;4.330;2024-02-23T04:23:31;7.00;99.90
23120;DHT22;11729;50.836;4.330;2024-02-23T04:25:59;7.00;99.90
23120;DHT22;11729;50.836;4.330;2024-02-23T04:28:24;7.00;99.90
23120;DHT22;11729;50.836;4.330;2024-02-23T04:30:52;7.00;99.90
23120;DHT22;11729;50.836;4.330;2024-02-23T04:33:18;7.00;99.90
23120;DHT22;11729;50.836;4.330;2024-02-23T04:35:44;7.00;99.90
23120;DHT22;11729;50.836;4.330;2024-02-23T04:38:10;7.00;99.90
23120;DHT22;11729;50.836;4.330;2024-02-23T04:40:36;7.00;99.90
23120;DHT22;11729;50.836;4.330;2024-02-23T04:43:01;6.90;99.90
23120;DHT22;11729;50.836;4.330;2024-02-23T04:45:27;7.00;99.90
23120;DHT22;11729;50.836;4.330;2024-02-23T04:47:55;7.10;99.90
23120;DHT22;11729;50.836;4.330;2024-02-23T04:50:21;7.00;99.90
23120;DHT22;11729;50.836;4.330;2024-02-23T04:52:46;7.10;99.90
23120;DHT22;11729;50.836;4.330;2024-02-23T04:55:12;7.20;99.90
23120;DHT22;11729;50.836;4.330;2024-02-23T04:57:37;7.10;99.90
23120;DHT22;11729;50.836;4.330;2024-02-23T05:00:04;7.20;99.90
23120;DHT22;11729;50.836;4.330;2024-02-23T05:02:32;7.10;99.90
23120;DHT22;11729;50.836;4.330;2024-02-23T05:05:02;7.10;99.90
23120;DHT22;11729;50.836;4.330;2024-02-23T05:07:32;7.10;99.90
23120;DHT22;11729;50.836;4.330;2024-02-23T05:09:58;7.10;99.90
23120;DHT22;11729;50.836;4.330;2024-02-23T05:12:24;7.10;99.90
23120;DHT22;11729;50.836;4.330;2024-02-23T05:14:50;7.00;99.90
23120;DHT22;11729;50.836;4.330;2024-02-23T05:17:15;7.00;99.90
23120;DHT22;11729;50.836;4.330;2024-02-23T05:19:41;7.00;99.90
23120;DHT22;11729;50.836;4.330;2024-02-23T05:22:07;7.00;99.90
23120;DHT22;11729;50.836;4.330;2024-02-23T05:24:32;7.00;99.90
23120;DHT22;11729;50.836;4.330;2024-02-23T05:26:58;7.10;99.90
23120;DHT22;11729;50.836;4.330;2024-02-23T05:29:27;7.20;99.90
23120;DHT22;11729;50.836;4.330;2024-02-23T05:31:53;7.20;99.90
23120;DHT22;11729;50.836;4.330;2024-02-23T05:34:19;7.10;99.90
23120;DHT22;11729;50.836;4.330;2024-02-23T05:36:45;6.90;99.90
23120;DHT22;11729;50.836;4.330;2024-02-23T05:39:12;6.90;99.90
23120;DHT22;11729;50.836;4.330;2024-02-23T05:41:41;7.00;99.90
23120;DHT22;11729;50.836;4.330;2024-02-23T05:44:07;7.00;99.90
23120;DHT22;11729;50.836;4.330;2024-02-23T05:46:34;7.00;99.90
23120;DHT22;11729;50.836;4.330;2024-02-23T05:49:00;7.00;99.90
23120;DHT22;11729;50.836;4.330;2024-02-23T05:51:28;7.10;99.90
23120;DHT22;11729;50.836;4.330;2024-02-23T05:53:54;7.20;99.90
23120;DHT22;11729;50.836;4.330;2024-02-23T05:56:20;7.20;99.90
23120;DHT22;11729;50.836;4.330;2024-02-23T05:58:46;7.10;99.90
23120;DHT22;11729;50.836;4.330;2024-02-23T06:01:13;7.00;99.90
23120;DHT22;11729;50.836;4.330;2024-02-23T06:03:39;6.90;99.90
23120;DHT22;11729;50.836;4.330;2024-02-23T06:06:09;7.00;99.90
23120;DHT22;11729;50.836;4.330;2024-02-23T06:08:35;6.90;99.90
23120;DHT22;11729;50.836;4.330;2024-02-23T06:11:01;7.00;99.90
23120;DHT22;11729;50.836;4.330;2024-02-23T06:13:29;7.00;99.90
23120;DHT22;11729;50.836;4.330;2024-02-23T06:15:55;6.90;99.90
23120;DHT22;11729;50.836;4.330;2024-02-23T06:18:20;6.90;99.90
23120;DHT22;11729;50.836;4.330;2024-02-23T06:20:46;7.10;99.90
23120;DHT22;11729;50.836;4.330;2024-02-23T06:23:11;7.00;99.90
23120;DHT22;11729;50.836;4.330;2024-02-23T06:25:38;6.90;99.90
23120;DHT22;11729;50.836;4.330;2024-02-23T06:28:04;6.80;99.90
23120;DHT22;11729;50.836;4.330;2024-02-23T06:30:29;6.80;99.90
23120;DHT22;11729;50.836;4.330;2024-02-23T06:32:55;6.90;99.90
23120;DHT22;11729;50.836;4.330;2024-02-23T06:35:20;6.80;99.90
23120;DHT22;11729;50.836;4.330;2024-02-23T06:37:47;6.90;99.90
23120;DHT22;11729;50.836;4.330;2024-02-23T06:40:13;6.80;99.90
23120;DHT22;11729;50.836;4.330;2024-02-23T06:42:38;6.90;99.90
23120;DHT22;11729;50.836;4.330;2024-02-23T06:45:04;7.00;99.90
23120;DHT22;11729;50.836;4.330;2024-02-23T06:47:30;7.00;99.90
23120;DHT22;11729;50.836;4.330;2024-02-23T06:49:55;7.00;99.90
23120;DHT22;11729;50.836;4.330;2024-02-23T06:52:21;7.00;99.90
23120;DHT22;11729;50.836;4.330;2024-02-23T06:54:48;7.00;99.90
23120;DHT22;11729;50.836;4.330;2024-02-23T06:57:14;7.20;99.90
23120;DHT22;11729;50.836;4.330;2024-02-23T06:59:40;7.20;99.90
23120;DHT22;11729;50.836;4.330;2024-02-23T07:02:06;7.30;99.90
23120;DHT22;11729;50.836;4.330;2024-02-23T07:04:31;7.20;99.90
23120;DHT22;11729;50.836;4.330;2024-02-23T07:06:59;7.20;99.90
23120;DHT22;11729;50.836;4.330;2024-02-23T07:09:24;7.20;99.90
23120;DHT22;11729;50.836;4.330;2024-02-23T07:11:50;7.20;99.90
23120;DHT22;11729;50.836;4.330;2024-02-23T07:14:16;7.20;99.90
23120;DHT22;11729;50.836;4.330;2024-02-23T07:16:43;7.20;99.90
23120;DHT22;11729;50.836;4.330;2024-02-23T07:19:09;7.20;99.90
23120;DHT22;11729;50.836;4.330;2024-02-23T07:21:35;7.20;99.90
23120;DHT22;11729;50.836;4.330;2024-02-23T07:24:00;7.20;99.90
23120;DHT22;11729;50.836;4.330;2024-02-23T07:26:26;7.30;99.90
23120;DHT22;11729;50.836;4.330;2024-02-23T07:28:55;7.30;99.90
23120;DHT22;11729;50.836;4.330;2024-02-23T07:31:21;7.30;99.90
23120;DHT22;11729;50.836;4.330;2024-02-23T07:33:47;7.30;99.90
23120;DHT22;11729;50.836;4.330;2024-02-23T07:36:16;7.40;99.90
23120;DHT22;11729;50.836;4.330;2024-02-23T07:38:42;7.50;99.90
23120;DHT22;11729;50.836;4.330;2024-02-23T07:41:10;7.60;99.90
23120;DHT22;11729;50.836;4.330;2024-02-23T07:43:35;7.70;99.90
23120;DHT22;11729;50.836;4.330;2024-02-23T07:46:01;7.70;99.90
23120;DHT22;11729;50.836;4.330;2024-02-23T07:48:28;7.60;99.90
23120;DHT22;11729;50.836;4.330;2024-02-23T07:50:53;7.70;99.90
23120;DHT22;11729;50.836;4.330;2024-02-23T07:53:19;7.80;99.90
23120;DHT22;11729;50.836;4.330;2024-02-23T07:55:45;7.80;99.90
23120;DHT22;11729;50.836;4.330;2024-02-23T07:58:10;7.80;99.90
23120;DHT22;11729;50.836;4.330;2024-02-23T08:00:36;7.80;99.90
23120;DHT22;11729;50.836;4.330;2024-02-23T08:03:04;7.90;99.90
23120;DHT22;11729;50.836;4.330;2024-02-23T08:05:30;7.80;99.90
23120;DHT22;11729;50.836;4.330;2024-02-23T08:07:55;7.60;99.90
23120;DHT22;11729;50.836;4.330;2024-02-23T08:10:21;7.40;99.90
23120;DHT22;11729;50.836;4.330;2024-02-23T08:12:47;7.20;99.90
23120;DHT22;11729;50.836;4.330;2024-02-23T08:15:12;7.00;99.90
23120;DHT22;11729;50.836;4.330;2024-02-23T08:17:38;7.00;99.90
23120;DHT22;11729;50.836;4.330;2024-02-23T08:20:05;7.00;99.90
23120;DHT22;11729;50.836;4.330;2024-02-23T08:22:30;7.00;99.90
23120;DHT22;11729;50.836;4.330;2024-02-23T08:24:56;7.00;99.90
23120;DHT22;11729;50.836;4.330;2024-02-23T08:27:23;6.90;99.90
23120;DHT22;11729;50.836;4.330;2024-02-23T08:29:49;6.70;99.90
23120;DHT22;11729;50.836;4.330;2024-02-23T08:32:14;6.70;99.90
23120;DHT22;11729;50.836;4.330;2024-02-23T08:34:40;6.70;99.90
23120;DHT22;11729;50.836;4.330;2024-02-23T08:37:06;6.80;99.90
23120;DHT22;11729;50.836;4.330;2024-02-23T08:39:31;6.70;99.90
23120;DHT22;11729;50.836;4.330;2024-02-23T08:41:57;6.80;99.90
23120;DHT22;11729;50.836;4.330;2024-02-23T08:44:23;7.00;99.90
23120;DHT22;11729;50.836;4.330;2024-02-23T08:46:49;7.00;99.90
23120;DHT22;11729;50.836;4.330;2024-02-23T08:49:15;7.00;99.90
23120;DHT22;11729;50.836;4.330;2024-02-23T08:51:41;7.10;99.90
23120;DHT22;11729;50.836;4.330;2024-02-23T08:54:06;7.10;99.90
23120;DHT22;11729;50.836;4.330;2024-02-23T08:56:39;7.10;99.90
23120;DHT22;11729;50.836;4.330;2024-02-23T08:59:08;7.00;99.90
23120;DHT22;11729;50.836;4.330;2024-02-23T09:01:34;6.90;99.90
23120;DHT22;11729;50.836;4.330;2024-02-23T09:04:00;6.80;99.90
23120;DHT22;11729;50.836;4.330;2024-02-23T09:06:26;6.80;99.90
23120;DHT22;11729;50.836;4.330;2024-02-23T09:08:51;6.90;99.90
23120;DHT22;11729;50.836;4.330;2024-02-23T09:11:17;7.00;99.90
23120;DHT22;11729;50.836;4.330;2024-02-23T09:13:43;7.00;99.90
23120;DHT22;11729;50.836;4.330;2024-02-23T09:16:08;7.00;99.90
23120;DHT22;11729;50.836;4.330;2024-02-23T09:18:35;6.90;99.90
23120;DHT22;11729;50.836;4.330;2024-02-23T09:21:00;6.80;99.90
23120;DHT22;11729;50.836;4.330;2024-02-23T09:23:26;6.70;99.90
23120;DHT22;11729;50.836;4.330;2024-02-23T09:25:52;6.60;99.90
23120;DHT22;11729;50.836;4.330;2024-02-23T09:28:18;6.60;99.90
23120;DHT22;11729;50.836;4.330;2024-02-23T09:30:44;6.70;99.90
23120;DHT22;11729;50.836;4.330;2024-02-23T09:33:10;6.80;99.90
23120;DHT22;11729;50.836;4.330;2024-02-23T09:35:37;6.90;99.90
23120;DHT22;11729;50.836;4.330;2024-02-23T09:38:02;7.00;99.90
23120;DHT22;11729;50.836;4.330;2024-02-23T09:40:28;7.10;99.90
23120;DHT22;11729;50.836;4.330;2024-02-23T09:42:58;7.20;99.90
23120;DHT22;11729;50.836;4.330;2024-02-23T09:45:25;7.50;99.90
23120;DHT22;11729;50.836;4.330;2024-02-23T09:47:56;7.60;99.90
23120;DHT22;11729;50.836;4.330;2024-02-23T09:50:25;7.60;99.90
23120;DHT22;11729;50.836;4.330;2024-02-23T09:52:52;7.60;99.90
23120;DHT22;11729;50.836;4.330;2024-02-23T09:55:18;7.60;99.90
23120;DHT22;11729;50.836;4.330;2024-02-23T09:57:48;7.50;99.90
23120;DHT22;11729;50.836;4.330;2024-02-23T10:00:16;7.40;99.90
23120;DHT22;11729;50.836;4.330;2024-02-23T10:02:43;7.40;99.90
23120;DHT22;11729;50.836;4.330;2024-02-23T10:05:11;7.40;99.90
23120;DHT22;11729;50.836;4.330;2024-02-23T10:07:37;7.50;99.90
23120;DHT22;11729;50.836;4.330;2024-02-23T10:10:07;7.50;99.90
23120;DHT22;11729;50.836;4.330;2024-02-23T10:12:33;7.50;99.90
23120;DHT22;11729;50.836;4.330;2024-02-23T10:14:59;7.70;99.90
23120;DHT22;11729;50.836;4.330;2024-02-23T10:17:26;7.80;99.90
23120;DHT22;11729;50.836;4.330;2024-02-23T10:19:52;8.00;99.90
23120;DHT22;11729;50.836;4.330;2024-02-23T10:22:20;8.20;99.90
23120;DHT22;11729;50.836;4.330;2024-02-23T10:24:46;8.30;99.90
23120;DHT22;11729;50.836;4.330;2024-02-23T10:27:12;8.40;99.90
23120;DHT22;11729;50.836;4.330;2024-02-23T10:29:38;8.50;99.90
23120;DHT22;11729;50.836;4.330;2024-02-23T10:32:06;8.60;99.90
23120;DHT22;11729;50.836;4.330;2024-02-23T10:34:34;8.50;99.90
23120;DHT22;11729;50.836;4.330;2024-02-23T10:37:05;8.50;99.90
23120;DHT22;11729;50.836;4.330;2024-02-23T10:39:36;8.60;99.90
23120;DHT22;11729;50.836;4.330;2024-02-23T10:42:03;8.60;99.90
23120;DHT22;11729;50.836;4.330;2024-02-23T10:44:30;8.50;99.90
23120;DHT22;11729;50.836;4.330;2024-02-23T10:46:56;8.50;99.90
23120;DHT22;11729;50.836;4.330;2024-02-23T10:49:23;8.70;99.90
23120;DHT22;11729;50.836;4.330;2024-02-23T10:51:54;8.70;99.90
23120;DHT22;11729;50.836;4.330;2024-02-23T10:54:20;8.80;99.90
23120;DHT22;11729;50.836;4.330;2024-02-23T10:56:48;8.90;99.90
23120;DHT22;11729;50.836;4.330;2024-02-23T10:59:14;8.80;99.90
23120;DHT22;11729;50.836;4.330;2024-02-23T11:01:48;9.00;99.90
23120;DHT22;11729;50.836;4.330;2024-02-23T11:04:16;9.20;99.90
23120;DHT22;11729;50.836;4.330;2024-02-23T11:06:48;9.20;99.90
23120;DHT22;11729;50.836;4.330;2024-02-23T11:09:14;9.10;99.90
23120;DHT22;11729;50.836;4.330;2024-02-23T11:11:40;9.10;99.90
23120;DHT22;11729;50.836;4.330;2024-02-23T11:14:16;9.20;99.90
23120;DHT22;11729;50.836;4.330;2024-02-23T11:16:41;9.00;99.90
23120;DHT22;11729;50.836;4.330;2024-02-23T11:19:08;9.10;99.90
23120;DHT22;11729;50.836;4.330;2024-02-23T11:21:37;9.00;99.90
23120;DHT22;11729;50.836;4.330;2024-02-23T11:24:04;8.80;99.90
23120;DHT22;11729;50.836;4.330;2024-02-23T11:26:30;8.80;99.90
23120;DHT22;11729;50.836;4.330;2024-02-23T11:28:55;8.90;99.90
23120;DHT22;11729;50.836;4.330;2024-02-23T11:31:24;9.10;99.90
23120;DHT22;11729;50.836;4.330;2024-02-23T11:33:50;9.20;99.90
23120;DHT22;11729;50.836;4.330;2024-02-23T11:36:32;9.30;99.90
23120;DHT22;11729;50.836;4.330;2024-02-23T11:39:00;9.10;99.90
23120;DHT22;11729;50.836;4.330;2024-02-23T11:41:26;9.00;99.90
23120;DHT22;11729;50.836;4.330;2024-02-23T11:43:54;9.10;99.90
23120;DHT22;11729;50.836;4.330;2024-02-23T11:46:20;9.20;99.90
23120;DHT22;11729;50.836;4.330;2024-02-23T11:48:46;9.40;99.90
23120;DHT22;11729;50.836;4.330;2024-02-23T11:51:15;9.50;99.90
23120;DHT22;11729;50.836;4.330;2024-02-23T11:53:42;9.50;99.90
23120;DHT22;11729;50.836;4.330;2024-02-23T11:56:07;9.40;99.90
23120;DHT22;11729;50.836;4.330;2024-02-23T11:58:33;9.40;99.90
23120;DHT22;11729;50.836;4.330;2024-02-23T12:01:02;9.30;99.90
23120;DHT22;11729;50.836;4.330;2024-02-23T12:03:29;9.50;99.90
23120;DHT22;11729;50.836;4.330;2024-02-23T12:06:00;9.70;99.90
23120;DHT22;11729;50.836;4.330;2024-02-23T12:08:26;9.80;99.90
23120;DHT22;11729;50.836;4.330;2024-02-23T12:10:54;10.20;99.90
23120;DHT22;11729;50.836;4.330;2024-02-23T12:13:20;10.20;99.90
23120;DHT22;11729;50.836;4.330;2024-02-23T12:15:47;10.20;99.90
23120;DHT22;11729;50.836;4.330;2024-02-23T12:18:14;10.10;99.90
23120;DHT22;11729;50.836;4.330;2024-02-23T12:20:40;10.20;99.90
23120;DHT22;11729;50.836;4.330;2024-02-23T12:23:07;10.30;99.90
23120;DHT22;11729;50.836;4.330;2024-02-23T12:25:33;10.40;99.90
23120;DHT22;11729;50.836;4.330;2024-02-23T12:27:59;10.40;99.90
23120;DHT22;11729;50.836;4.330;2024-02-23T12:30:26;10.30;99.90
23120;DHT22;11729;50.836;4.330;2024-02-23T12:33:09;10.20;99.90
23120;DHT22;11729;50.836;4.330;2024-02-23T12:35:35;10.20;99.90
23120;DHT22;11729;50.836;4.330;2024-02-23T12:38:01;10.30;99.90
23120;DHT22;11729;50.836;4.330;2024-02-23T12:40:27;10.50;99.90
23120;DHT22;11729;50.836;4.330;2024-02-23T12:42:53;10.60;99.90
23120;DHT22;11729;50.836;4.330;2024-02-23T12:45:18;10.70;99.90
23120;DHT22;11729;50.836;4.330;2024-02-23T12:47:44;10.80;99.90
23120;DHT22;11729;50.836;4.330;2024-02-23T12:50:10;11.00;99.90
23120;DHT22;11729;50.836;4.330;2024-02-23T12:52:36;10.90;99.90
23120;DHT22;11729;50.836;4.330;2024-02-23T12:55:02;10.70;99.90
23120;DHT22;11729;50.836;4.330;2024-02-23T12:57:28;10.80;99.90
23120;DHT22;11729;50.836;4.330;2024-02-23T12:59:54;11.10;99.90
23120;DHT22;11729;50.836;4.330;2024-02-23T13:02:20;11.00;99.90
23120;DHT22;11729;50.836;4.330;2024-02-23T13:04:46;11.00;99.90
23120;DHT22;11729;50.836;4.330;2024-02-23T13:07:15;11.00;99.90
23120;DHT22;11729;50.836;4.330;2024-02-23T13:09:42;10.80;99.90
23120;DHT22;11729;50.836;4.330;2024-02-23T13:12:09;10.40;99.90
23120;DHT22;11729;50.836;4.330;2024-02-23T13:14:37;10.40;99.90
23120;DHT22;11729;50.836;4.330;2024-02-23T13:17:06;10.10;99.90
23120;DHT22;11729;50.836;4.330;2024-02-23T13:19:32;10.10;99.90
23120;DHT22;11729;50.836;4.330;2024-02-23T13:22:02;10.10;99.90
23120;DHT22;11729;50.836;4.330;2024-02-23T13:24:36;10.20;99.90
23120;DHT22;11729;50.836;4.330;2024-02-23T13:27:08;10.30;99.90
23120;DHT22;11729;50.836;4.330;2024-02-23T13:29:48;10.50;99.90
23120;DHT22;11729;50.836;4.330;2024-02-23T13:32:20;10.70;99.90
23120;DHT22;11729;50.836;4.330;2024-02-23T13:34:54;10.70;99.90
23120;DHT22;11729;50.836;4.330;2024-02-23T13:37:33;10.70;99.90
23120;DHT22;11729;50.836;4.330;2024-02-23T13:39:59;10.90;99.90
23120;DHT22;11729;50.836;4.330;2024-02-23T13:42:25;11.10;99.90
23120;DHT22;11729;50.836;4.330;2024-02-23T13:44:50;11.10;99.90
23120;DHT22;11729;50.836;4.330;2024-02-23T13:47:16;10.90;99.90
23120;DHT22;11729;50.836;4.330;2024-02-23T13:49:42;10.80;99.90
23120;DHT22;11729;50.836;4.330;2024-02-23T13:52:08;11.00;99.90
23120;DHT22;11729;50.836;4.330;2024-02-23T13:54:33;11.30;99.90
23120;DHT22;11729;50.836;4.330;2024-02-23T13:56:59;11.50;99.90
23120;DHT22;11729;50.836;4.330;2024-02-23T13:59:25;11.40;99.90
23120;DHT22;11729;50.836;4.330;2024-02-23T14:01:50;11.90;99.90
23120;DHT22;11729;50.836;4.330;2024-02-23T14:04:17;12.40;99.90
23120;DHT22;11729;50.836;4.330;2024-02-23T14:06:42;12.90;99.90
23120;DHT22;11729;50.836;4.330;2024-02-23T14:09:09;12.80;99.90
23120;DHT22;11729;50.836;4.330;2024-02-23T14:11:35;12.50;99.90
23120;DHT22;11729;50.836;4.330;2024-02-23T14:14:01;12.20;99.90
23120;DHT22;11729;50.836;4.330;2024-02-23T14:16:28;12.00;99.90
23120;DHT22;11729;50.836;4.330;2024-02-23T14:18:54;12.10;99.90
23120;DHT22;11729;50.836;4.330;2024-02-23T14:21:21;12.10;99.90
23120;DHT22;11729;50.836;4.330;2024-02-23T14:23:48;12.40;99.90
23120;DHT22;11729;50.836;4.330;2024-02-23T14:26:14;12.50;99.90
23120;DHT22;11729;50.836;4.330;2024-02-23T14:28:39;12.70;99.90
23120;DHT22;11729;50.836;4.330;2024-02-23T14:31:06;12.80;99.90
23120;DHT22;11729;50.836;4.330;2024-02-23T14:33:32;12.60;99.90
23120;DHT22;11729;50.836;4.330;2024-02-23T14:35:58;12.20;99.90
23120;DHT22;11729;50.836;4.330;2024-02-23T14:38:23;12.00;99.90
23120;DHT22;11729;50.836;4.330;2024-02-23T14:40:49;11.80;99.90
23120;DHT22;11729;50.836;4.330;2024-02-23T14:43:15;11.50;99.90
23120;DHT22;11729;50.836;4.330;2024-02-23T14:45:41;11.60;99.90
23120;DHT22;11729;50.836;4.330;2024-02-23T14:48:07;11.60;99.90
23120;DHT22;11729;50.836;4.330;2024-02-23T14:50:33;11.60;99.90
23120;DHT22;11729;50.836;4.330;2024-02-23T14:52:59;11.40;99.90
23120;DHT22;11729;50.836;4.330;2024-02-23T14:55:26;11.30;99.90
23120;DHT22;11729;50.836;4.330;2024-02-23T14:57:52;11.30;99.90
23120;DHT22;11729;50.836;4.330;2024-02-23T15:00:19;11.20;99.90
23120;DHT22;11729;50.836;4.330;2024-02-23T15:02:45;11.20;99.90
23120;DHT22;11729;50.836;4.330;2024-02-23T15:05:10;11.30;99.90
23120;DHT22;11729;50.836;4.330;2024-02-23T15:07:36;11.30;99.90
23120;DHT22;11729;50.836;4.330;2024-02-23T15:10:03;11.20;99.90
23120;DHT22;11729;50.836;4.330;2024-02-23T15:12:34;11.20;99.90
23120;DHT22;11729;50.836;4.330;2024-02-23T15:15:01;11.10;99.90
23120;DHT22;11729;50.836;4.330;2024-02-23T15:17:26;10.90;99.90
23120;DHT22;11729;50.836;4.330;2024-02-23T15:19:52;10.90;99.90
23120;DHT22;11729;50.836;4.330;2024-02-23T15:22:18;10.80;99.90
23120;DHT22;11729;50.836;4.330;2024-02-23T15:24:45;10.70;99.90
23120;DHT22;11729;50.836;4.330;2024-02-23T15:27:18;10.60;99.90
23120;DHT22;11729;50.836;4.330;2024-02-23T15:29:46;10.80;99.90
23120;DHT22;11729;50.836;4.330;2024-02-23T15:32:13;10.90;99.90
23120;DHT22;11729;50.836;4.330;2024-02-23T15:34:40;11.00;99.90
23120;DHT22;11729;50.836;4.330;2024-02-23T15:37:06;11.00;99.90